Time;durP1;ratioP1;P1;durP2;ratioP2;P2;SDS_P1;SDS_P2;PMS_P1;PMS_P2;Temp;Humidity;BMP_temperature;BMP_pressure;BME280_temperature;BME280_humidity;BME280_pressure;Samples;Min_cycle;Max_cycle;Signal;HPM_P1;HPM_P2
2023/01/08 00:02:03;;;;;;;;;;;;;;;11.17;60.72;99362.38;4478594;32;33388;-89
2023/01/08 00:04:31;;;;;;;;;;;;;;;10.25;62.81;99357.50;4481478;32;32623;-85
2023/01/08 00:07:01;;;;;;;;;;;;;;;10.60;62.59;99360.66;4482523;32;35317;-92
2023/01/08 00:09:28;;;;;;;;;;;;;;;11.12;60.87;99351.06;4483071;32;33834;-91
2023/01/08 00:11:55;;;;;;;;;;;;;;;10.09;63.86;99361.53;4478255;32;33214;-82
2023/01/08 00:14:22;;;;;;;;;;;;;;;10.89;61.44;99350.75;4483145;32;33734;-91
2023/01/08 00:16:50;;;;;;;;;;;;;;;10.40;62.63;99351.72;4483215;32;35218;-85
2023/01/08 00:19:18;;;;;;;;;;;;;;;10.42;62.67;99355.22;4467976;32;34917;-84
2023/01/08 00:21:45;;;;;;;;;;;;;;;9.59;65.63;99356.28;4476714;32;34628;-85
2023/01/08 00:24:12;;;;;;;;;;;;;;;9.51;66.17;99352.66;4480072;32;34155;-82
2023/01/08 00:26:40;;;;;;;;;;;;;;;9.70;65.77;99344.41;4481421;32;34011;-83
2023/01/08 00:29:07;;;;;;;;;;;;;;;9.13;66.81;99341.50;4482885;32;33477;-83
2023/01/08 00:31:34;;;;;;;;;;;;;;;9.97;64.74;99341.47;4479521;32;33306;-88
2023/01/08 00:34:01;;;;;;;;;;;;;;;10.14;62.94;99341.75;4480416;32;34324;-83
2023/01/08 00:36:29;;;;;;;;;;;;;;;10.32;63.40;99335.16;4482658;32;34576;-81
2023/01/08 00:38:57;;;;;;;;;;;;;;;9.68;65.21;99330.56;4469435;32;34194;-82
2023/01/08 00:41:25;;;;;;;;;;;;;;;9.30;66.79;99336.69;4474177;32;31817;-83
2023/01/08 00:43:52;;;;;;;;;;;;;;;10.13;64.11;99341.72;4467590;32;34890;-89
2023/01/08 00:46:19;;;;;;;;;;;;;;;11.43;59.78;99343.66;4478904;32;34486;-83
2023/01/08 00:48:47;;;;;;;;;;;;;;;11.19;60.35;99337.31;4482709;32;33986;-82
2023/01/08 00:51:14;;;;;;;;;;;;;;;11.96;58.05;99351.19;4482157;32;33447;-82
2023/01/08 00:53:41;;;;;;;;;;;;;;;11.98;57.89;99353.84;4483301;32;34947;-89
2023/01/08 00:56:09;;;;;;;;;;;;;;;11.44;59.05;99355.81;4480901;32;35739;-89
2023/01/08 00:58:36;;;;;;;;;;;;;;;11.81;57.94;99351.88;4479603;32;34204;-83
2023/01/08 01:01:10;;;;;;;;;;;;;;;11.38;59.21;99347.94;4466683;32;34120;-84
2023/01/08 01:03:38;;;;;;;;;;;;;;;10.87;60.92;99348.97;4483430;32;33845;-83
2023/01/08 01:06:05;;;;;;;;;;;;;;;11.18;60.07;99348.56;4467893;32;35247;-83
2023/01/08 01:08:33;;;;;;;;;;;;;;;11.17;59.72;99364.09;4467200;32;33689;-82
2023/01/08 01:11:05;;;;;;;;;;;;;;;11.19;59.52;99352.87;4483422;32;33116;-83
2023/01/08 01:13:32;;;;;;;;;;;;;;;9.24;65.43;99364.19;4481825;32;34257;-82
2023/01/08 01:15:59;;;;;;;;;;;;;;;10.03;63.71;99357.94;4467124;32;34395;-81
2023/01/08 01:18:27;;;;;;;;;;;;;;;10.04;63.68;99346.72;4479508;32;34429;-87
2023/01/08 01:20:54;;;;;;;;;;;;;;;9.19;66.28;99352.84;4480261;32;34397;-82
2023/01/08 01:23:21;;;;;;;;;;;;;;;8.78;67.57;99359.69;4467618;32;35120;-88
2023/01/08 01:25:49;;;;;;;;;;;;;;;8.91;67.09;99351.41;4482902;32;33818;-88
2023/01/08 01:28:16;;;;;;;;;;;;;;;9.41;66.03;99338.66;4482845;32;34073;-82
2023/01/08 01:30:43;;;;;;;;;;;;;;;9.07;67.23;99337.09;4477069;32;33484;-86
2023/01/08 01:33:11;;;;;;;;;;;;;;;9.26;66.01;99336.63;4478154;32;33654;-83
2023/01/08 01:35:38;;;;;;;;;;;;;;;8.85;67.45;99334.88;4482447;32;34703;-83
2023/01/08 01:38:05;;;;;;;;;;;;;;;9.52;65.58;99336.28;4482352;32;33906;-83
2023/01/08 01:40:33;;;;;;;;;;;;;;;9.87;64.71;99330.91;4479809;32;32834;-84
2023/01/08 01:43:00;;;;;;;;;;;;;;;9.88;64.24;99325.72;4481748;32;33364;-82
2023/01/08 01:45:27;;;;;;;;;;;;;;;9.41;65.82;99325.72;4482551;32;34058;-84
2023/01/08 01:48:11;;;;;;;;;;;;;;;10.00;63.74;99319.94;4482139;32;33862;-82
2023/01/08 01:50:42;;;;;;;;;;;;;;;10.41;62.39;99318.03;4463988;32;34042;-82
2023/01/08 01:53:11;;;;;;;;;;;;;;;10.09;62.96;99312.31;4481205;32;34620;-82
2023/01/08 01:55:39;;;;;;;;;;;;;;;10.40;61.70;99310.25;4468052;32;34352;-81
2023/01/08 01:58:06;;;;;;;;;;;;;;;9.68;64.09;99307.25;4481601;32;35557;-82
2023/01/08 02:00:34;;;;;;;;;;;;;;;9.06;66.77;99298.28;4478432;32;33945;-82
2023/01/08 02:03:01;;;;;;;;;;;;;;;8.95;67.10;99285.97;4482083;32;34952;-81
2023/01/08 02:05:33;;;;;;;;;;;;;;;9.32;65.71;99293.59;4483924;32;33742;-85
2023/01/08 02:08:06;;;;;;;;;;;;;;;8.99;66.84;99292.97;4468784;32;34470;-91
2023/01/08 02:10:41;;;;;;;;;;;;;;;9.63;64.63;99288.19;4466619;32;33701;-89
2023/01/08 02:13:10;;;;;;;;;;;;;;;9.55;65.25;99288.91;4470746;32;34155;-90
2023/01/08 02:15:41;;;;;;;;;;;;;;;9.16;66.55;99280.38;4470380;32;35302;-83
2023/01/08 02:18:11;;;;;;;;;;;;;;;8.74;67.80;99278.63;4469192;32;34036;-90
2023/01/08 02:20:39;;;;;;;;;;;;;;;9.02;66.94;99281.81;4470683;32;32843;-92
2023/01/08 02:23:06;;;;;;;;;;;;;;;8.64;68.27;99279.28;4470926;32;34327;-91
2023/01/08 02:25:53;;;;;;;;;;;;;;;8.46;68.75;99284.03;4483763;32;34403;-88
2023/01/08 02:28:20;;;;;;;;;;;;;;;9.01;67.25;99273.16;4481399;32;34972;-91
2023/01/08 02:30:47;;;;;;;;;;;;;;;8.56;68.44;99272.19;4466498;32;33098;-82
2023/01/08 02:33:14;;;;;;;;;;;;;;;8.70;68.15;99265.62;4467391;32;33893;-90
2023/01/08 02:35:53;;;;;;;;;;;;;;;9.05;66.83;99263.75;4469544;32;34006;-90
2023/01/08 02:38:20;;;;;;;;;;;;;;;9.18;66.21;99263.19;4484134;32;34239;-90
2023/01/08 02:40:52;;;;;;;;;;;;;;;8.95;67.12;99259.25;4483060;32;33209;-81
2023/01/08 02:43:25;;;;;;;;;;;;;;;9.44;65.25;99250.75;4469859;32;34142;-82
2023/01/08 02:45:54;;;;;;;;;;;;;;;9.50;64.65;99256.00;4470298;32;34450;-83
2023/01/08 02:48:21;;;;;;;;;;;;;;;9.38;65.59;99254.94;4469924;32;34379;-90
2023/01/08 02:50:53;;;;;;;;;;;;;;;9.31;65.16;99253.94;4481099;32;33131;-91
2023/01/08 02:53:20;;;;;;;;;;;;;;;8.84;67.31;99258.16;4484248;32;34232;-83
2023/01/08 02:55:49;;;;;;;;;;;;;;;9.25;66.36;99259.88;4482586;32;34573;-89
2023/01/08 02:58:17;;;;;;;;;;;;;;;9.12;66.19;99252.69;4483901;32;34390;-91
2023/01/08 03:00:45;;;;;;;;;;;;;;;9.36;65.01;99251.44;4467794;32;34295;-87
2023/01/08 03:03:16;;;;;;;;;;;;;;;9.24;65.73;99259.81;4484364;32;34828;-92
2023/01/08 03:05:45;;;;;;;;;;;;;;;9.46;65.29;99255.94;4469003;32;33843;-86
2023/01/08 03:08:12;;;;;;;;;;;;;;;9.13;65.96;99250.97;4484279;32;35093;-93
2023/01/08 03:10:40;;;;;;;;;;;;;;;8.94;66.11;99254.91;4482866;32;33506;-81
2023/01/08 03:13:09;;;;;;;;;;;;;;;9.00;66.52;99255.03;4469841;32;34169;-87
2023/01/08 03:15:38;;;;;;;;;;;;;;;10.04;62.97;99238.84;4470012;32;34945;-92
2023/01/08 03:18:06;;;;;;;;;;;;;;;9.58;64.61;99247.53;4483573;32;34196;-84
2023/01/08 03:20:35;;;;;;;;;;;;;;;9.47;64.83;99234.38;4482062;31;33181;-82
2023/01/08 03:23:02;;;;;;;;;;;;;;;9.41;65.08;99242.91;4469356;32;34915;-84
2023/01/08 03:25:30;;;;;;;;;;;;;;;8.94;66.60;99244.56;4469759;32;34050;-91
2023/01/08 03:27:59;;;;;;;;;;;;;;;9.41;65.38;99242.06;4469818;32;33720;-89
2023/01/08 03:30:27;;;;;;;;;;;;;;;9.03;65.80;99242.19;4466788;32;34326;-85
2023/01/08 03:32:56;;;;;;;;;;;;;;;8.99;66.89;99235.22;4477255;32;33553;-89
2023/01/08 03:35:23;;;;;;;;;;;;;;;9.10;66.01;99233.72;4469716;32;34461;-92
2023/01/08 03:37:53;;;;;;;;;;;;;;;9.95;63.82;99233.50;4483841;32;34420;-92
2023/01/08 03:40:22;;;;;;;;;;;;;;;9.66;63.53;99241.66;4483025;32;33236;-92
2023/01/08 03:42:49;;;;;;;;;;;;;;;10.04;63.22;99238.84;4483112;32;33801;-90
2023/01/08 03:45:16;;;;;;;;;;;;;;;10.02;62.81;99235.34;4469651;32;34505;-92
2023/01/08 03:47:43;;;;;;;;;;;;;;;10.14;62.69;99230.34;4483660;32;34402;-93
2023/01/08 03:50:13;;;;;;;;;;;;;;;9.80;62.94;99228.94;4468533;32;34420;-89
2023/01/08 03:52:40;;;;;;;;;;;;;;;10.41;61.56;99216.09;4469935;32;33948;-92
2023/01/08 03:55:08;;;;;;;;;;;;;;;9.69;63.29;99220.97;4484182;32;34032;-92
2023/01/08 03:57:35;;;;;;;;;;;;;;;9.47;64.93;99221.44;4483791;32;33789;-90
2023/01/08 04:00:03;;;;;;;;;;;;;;;9.71;64.16;99221.88;4483121;32;33031;-88
2023/01/08 04:02:30;;;;;;;;;;;;;;;10.31;62.45;99215.09;4468779;32;34119;-89
2023/01/08 04:04:58;;;;;;;;;;;;;;;10.56;61.05;99213.69;4483705;32;35256;-84
2023/01/08 04:07:25;;;;;;;;;;;;;;;9.46;64.22;99230.94;4468380;32;33846;-89
2023/01/08 04:09:53;;;;;;;;;;;;;;;10.34;61.88;99216.84;4453993;32;34224;-83
2023/01/08 04:12:20;;;;;;;;;;;;;;;9.27;65.22;99221.94;4479691;32;34804;-83
2023/01/08 04:14:47;;;;;;;;;;;;;;;9.54;64.37;99215.53;4483911;32;34466;-88
2023/01/08 04:17:14;;;;;;;;;;;;;;;10.17;62.65;99212.25;4483231;32;34898;-89
2023/01/08 04:19:42;;;;;;;;;;;;;;;10.93;59.95;99220.22;4483383;32;32867;-89
2023/01/08 04:22:10;;;;;;;;;;;;;;;11.00;59.49;99217.72;4480526;32;34480;-88
2023/01/08 04:24:37;;;;;;;;;;;;;;;10.97;59.58;99221.16;4483549;32;34191;-92
2023/01/08 04:27:04;;;;;;;;;;;;;;;9.83;63.09;99212.59;4482637;32;33907;-92
2023/01/08 04:29:31;;;;;;;;;;;;;;;9.99;62.45;99209.37;4469109;32;33472;-90
2023/01/08 04:31:59;;;;;;;;;;;;;;;10.24;61.66;99203.72;4479323;32;33860;-91
2023/01/08 04:34:26;;;;;;;;;;;;;;;11.11;59.33;99201.44;4469645;32;34396;-87
2023/01/08 04:36:53;;;;;;;;;;;;;;;10.36;60.64;99195.28;4480742;32;34399;-92
2023/01/08 04:39:21;;;;;;;;;;;;;;;10.98;59.41;99203.84;4483191;32;33738;-90
2023/01/08 04:41:48;;;;;;;;;;;;;;;11.31;58.39;99203.38;4483874;32;34214;-90
2023/01/08 04:44:15;;;;;;;;;;;;;;;11.13;58.59;99206.63;4483455;32;34225;-92
2023/01/08 04:46:42;;;;;;;;;;;;;;;9.76;62.76;99214.19;4481559;32;35042;-90
2023/01/08 04:49:10;;;;;;;;;;;;;;;10.88;59.63;99211.53;4483271;32;33748;-90
2023/01/08 04:51:37;;;;;;;;;;;;;;;10.16;61.56;99212.25;4481302;32;33721;-88
2023/01/08 04:54:05;;;;;;;;;;;;;;;9.48;64.15;99215.44;4468773;32;35263;-85
2023/01/08 04:56:32;;;;;;;;;;;;;;;9.49;64.39;99212.00;4474717;32;34806;-91
2023/01/08 04:58:59;;;;;;;;;;;;;;;9.67;63.49;99217.50;4476829;32;34254;-85
2023/01/08 05:01:27;;;;;;;;;;;;;;;10.36;61.67;99210.84;4482077;32;34635;-87
2023/01/08 05:03:58;;;;;;;;;;;;;;;10.30;61.39;99207.28;4469178;32;34400;-92
2023/01/08 05:06:26;;;;;;;;;;;;;;;9.98;62.86;99210.25;4468640;32;34341;-90
2023/01/08 05:08:54;;;;;;;;;;;;;;;9.57;63.64;99220.78;4483164;32;33792;-92
2023/01/08 05:11:21;;;;;;;;;;;;;;;10.19;62.01;99208.00;4479153;32;32848;-91
2023/01/08 05:13:49;;;;;;;;;;;;;;;10.70;59.85;99201.78;4483365;32;34017;-83
2023/01/08 05:16:16;;;;;;;;;;;;;;;9.84;62.30;99209.13;4468880;32;34514;-91
2023/01/08 05:18:44;;;;;;;;;;;;;;;9.81;62.40;99202.22;4468856;32;33426;-92
2023/01/08 05:21:12;;;;;;;;;;;;;;;10.34;61.39;99197.00;4466278;32;34582;-82
2023/01/08 05:23:39;;;;;;;;;;;;;;;10.26;61.49;99197.72;4483238;32;34770;-88
2023/01/08 05:26:06;;;;;;;;;;;;;;;9.78;63.02;99193.53;4480979;32;34311;-91
2023/01/08 05:28:33;;;;;;;;;;;;;;;10.59;60.52;99198.19;4468551;32;33750;-88
2023/01/08 05:31:01;;;;;;;;;;;;;;;9.99;62.01;99193.84;4480903;32;34075;-90
2023/01/08 05:33:28;;;;;;;;;;;;;;;9.84;62.52;99199.66;4482933;32;34343;-86
2023/01/08 05:35:55;;;;;;;;;;;;;;;9.54;63.46;99194.81;4480903;32;34299;-83
2023/01/08 05:38:23;;;;;;;;;;;;;;;10.73;60.19;99188.00;4483442;32;33122;-87
2023/01/08 05:40:51;;;;;;;;;;;;;;;9.85;61.79;99200.50;4480772;32;33784;-89
2023/01/08 05:43:18;;;;;;;;;;;;;;;10.44;61.24;99187.63;4468047;32;33489;-85
2023/01/08 05:45:45;;;;;;;;;;;;;;;10.00;62.28;99187.84;4475492;32;34259;-91
2023/01/08 05:48:12;;;;;;;;;;;;;;;9.66;63.24;99195.06;4484703;32;33601;-91
2023/01/08 05:50:40;;;;;;;;;;;;;;;9.36;64.58;99185.06;4480678;32;33517;-87
2023/01/08 05:53:08;;;;;;;;;;;;;;;9.02;65.67;99178.37;4484935;32;34267;-84
2023/01/08 05:55:35;;;;;;;;;;;;;;;10.03;62.57;99185.28;4484149;32;35076;-84
2023/01/08 05:58:03;;;;;;;;;;;;;;;9.82;63.05;99180.66;4473082;32;33297;-89
2023/01/08 06:00:31;;;;;;;;;;;;;;;8.97;65.87;99178.28;4471346;32;33522;-83
2023/01/08 06:02:59;;;;;;;;;;;;;;;9.31;64.98;99178.03;4470590;32;34395;-91
2023/01/08 06:05:26;;;;;;;;;;;;;;;10.50;61.18;99166.12;4484264;32;34128;-88
2023/01/08 06:07:53;;;;;;;;;;;;;;;10.51;61.41;99162.66;4483825;32;34050;-92
2023/01/08 06:10:21;;;;;;;;;;;;;;;10.51;61.19;99160.94;4482586;32;34879;-92
2023/01/08 06:12:48;;;;;;;;;;;;;;;9.82;63.18;99164.25;4483122;32;33899;-89
2023/01/08 06:15:15;;;;;;;;;;;;;;;10.47;60.93;99162.63;4484222;32;34090;-93
2023/01/08 06:17:42;;;;;;;;;;;;;;;10.43;60.92;99152.19;4475447;32;34690;-89
2023/01/08 06:20:10;;;;;;;;;;;;;;;10.30;61.23;99150.28;4468881;32;34987;-88
2023/01/08 06:22:37;;;;;;;;;;;;;;;10.43;60.87;99154.78;4468303;32;34113;-91
2023/01/08 06:25:05;;;;;;;;;;;;;;;9.54;63.79;99163.78;4468735;32;34234;-83
2023/01/08 06:27:32;;;;;;;;;;;;;;;10.89;59.61;99155.34;4484529;32;33176;-92
2023/01/08 06:29:59;;;;;;;;;;;;;;;10.69;59.80;99162.91;4466513;32;33877;-87
2023/01/08 06:32:26;;;;;;;;;;;;;;;10.57;60.08;99161.03;4467801;32;34466;-90
2023/01/08 06:34:53;;;;;;;;;;;;;;;10.75;59.81;99157.75;4468755;32;34820;-91
2023/01/08 06:37:21;;;;;;;;;;;;;;;10.58;59.81;99154.97;4483163;32;33532;-91
2023/01/08 06:39:48;;;;;;;;;;;;;;;9.83;62.45;99150.44;4484280;32;33715;-85
2023/01/08 06:42:15;;;;;;;;;;;;;;;9.66;63.39;99152.75;4470585;32;34029;-90
2023/01/08 06:44:42;;;;;;;;;;;;;;;10.49;60.46;99149.66;4468588;32;34055;-89
2023/01/08 06:47:10;;;;;;;;;;;;;;;10.53;59.83;99150.56;4481274;32;33163;-91
2023/01/08 06:49:37;;;;;;;;;;;;;;;10.44;60.27;99153.94;4483899;32;34654;-85
2023/01/08 06:52:04;;;;;;;;;;;;;;;11.45;57.42;99144.66;4481972;32;33737;-87
2023/01/08 06:54:32;;;;;;;;;;;;;;;9.82;61.90;99154.75;4484418;32;34115;-93
2023/01/08 06:56:59;;;;;;;;;;;;;;;10.23;60.67;99152.78;4482254;32;34287;-86
2023/01/08 06:59:26;;;;;;;;;;;;;;;9.98;61.97;99161.03;4480953;32;34170;-91
2023/01/08 07:01:54;;;;;;;;;;;;;;;10.37;60.78;99152.97;4481969;32;34305;-93
2023/01/08 07:04:21;;;;;;;;;;;;;;;10.37;61.21;99154.69;4484281;32;33731;-90
2023/01/08 07:06:49;;;;;;;;;;;;;;;9.57;63.38;99161.25;4468893;32;33179;-91
2023/01/08 07:09:16;;;;;;;;;;;;;;;9.52;63.81;99155.13;4484507;32;34196;-91
2023/01/08 07:11:43;;;;;;;;;;;;;;;10.77;59.76;99158.66;4478854;32;34261;-85
2023/01/08 07:14:10;;;;;;;;;;;;;;;10.38;60.39;99152.16;4483466;32;34922;-89
2023/01/08 07:16:38;;;;;;;;;;;;;;;10.11;61.82;99152.56;4483685;32;34138;-87
2023/01/08 07:19:06;;;;;;;;;;;;;;;9.84;62.22;99152.16;4483136;32;33395;-89
2023/01/08 07:21:33;;;;;;;;;;;;;;;9.50;63.73;99157.66;4481876;32;34770;-90
2023/01/08 07:24:01;;;;;;;;;;;;;;;9.46;63.30;99155.00;4483661;32;35147;-90
2023/01/08 07:26:28;;;;;;;;;;;;;;;9.60;63.44;99157.84;4470679;32;33423;-88
2023/01/08 07:28:55;;;;;;;;;;;;;;;9.87;62.57;99149.63;4483896;32;34153;-91
2023/01/08 07:31:22;;;;;;;;;;;;;;;9.84;62.33;99152.16;4481690;32;34498;-89
2023/01/08 07:33:50;;;;;;;;;;;;;;;9.59;62.95;99141.44;4483537;32;34072;-89
2023/01/08 07:36:21;;;;;;;;;;;;;;;9.41;64.06;99131.66;4483889;32;33324;-91
2023/01/08 07:38:48;;;;;;;;;;;;;;;9.75;62.37;99145.16;4484453;32;34817;-90
2023/01/08 07:41:16;;;;;;;;;;;;;;;10.03;61.82;99149.00;4465060;32;34258;-89
2023/01/08 07:43:45;;;;;;;;;;;;;;;9.00;64.21;99149.88;4483478;32;34020;-87
2023/01/08 07:46:13;;;;;;;;;;;;;;;10.47;60.63;99143.59;4469710;32;33488;-90
2023/01/08 07:48:40;;;;;;;;;;;;;;;9.77;62.51;99145.16;4483757;32;34287;-90
2023/01/08 07:51:08;;;;;;;;;;;;;;;9.73;62.08;99137.34;4480686;32;35076;-84
2023/01/08 07:53:35;;;;;;;;;;;;;;;11.01;58.41;99133.84;4469185;32;33753;-92
2023/01/08 07:56:04;;;;;;;;;;;;;;;10.51;60.18;99137.59;4483508;32;34202;-83
2023/01/08 07:58:31;;;;;;;;;;;;;;;9.71;62.50;99130.41;4469445;32;34019;-90
2023/01/08 08:00:58;;;;;;;;;;;;;;;8.83;65.23;99140.09;4463328;32;34458;-91
2023/01/08 08:03:26;;;;;;;;;;;;;;;9.71;62.35;99141.63;4483091;32;33994;-90
2023/01/08 08:05:53;;;;;;;;;;;;;;;9.46;63.48;99142.06;4483724;32;33561;-86
2023/01/08 08:08:20;;;;;;;;;;;;;;;8.69;65.96;99140.69;4481301;32;33705;-84
2023/01/08 08:10:48;;;;;;;;;;;;;;;9.15;64.23;99132.91;4477765;32;35190;-90
2023/01/08 08:13:15;;;;;;;;;;;;;;;10.24;61.00;99133.78;4483606;32;34000;-90
2023/01/08 08:15:42;;;;;;;;;;;;;;;8.79;65.04;99134.00;4482583;32;33444;-81
2023/01/08 08:18:10;;;;;;;;;;;;;;;9.15;64.26;99131.19;4468129;32;33929;-82
2023/01/08 08:20:37;;;;;;;;;;;;;;;10.18;61.28;99115.53;4454779;32;33684;-93
2023/01/08 08:23:06;;;;;;;;;;;;;;;9.51;63.05;99114.56;4482953;32;33758;-90
2023/01/08 08:25:33;;;;;;;;;;;;;;;10.18;60.98;99117.28;4468803;32;33424;-88
2023/01/08 08:28:01;;;;;;;;;;;;;;;9.05;64.08;99111.19;4481009;32;34224;-87
2023/01/08 08:30:28;;;;;;;;;;;;;;;8.12;66.72;99111.91;4467664;32;35092;-90
2023/01/08 08:32:57;;;;;;;;;;;;;;;8.00;67.81;99112.53;4483681;32;34274;-89
2023/01/08 08:35:24;;;;;;;;;;;;;;;8.47;67.06;99102.34;4483843;32;33968;-92
2023/01/08 08:37:52;;;;;;;;;;;;;;;8.89;65.58;99110.03;4482746;32;34131;-87
2023/01/08 08:40:19;;;;;;;;;;;;;;;10.29;61.01;99109.69;4480304;32;35148;-91
2023/01/08 08:42:47;;;;;;;;;;;;;;;9.41;63.41;99094.56;4444425;32;786825;-91
2023/01/08 08:45:14;;;;;;;;;;;;;;;8.87;64.94;99103.13;4471274;32;33271;-91
2023/01/08 08:47:41;;;;;;;;;;;;;;;10.35;60.86;99095.09;4458834;32;34267;-90
2023/01/08 08:50:08;;;;;;;;;;;;;;;9.72;62.52;99089.00;4475570;32;34171;-86
2023/01/08 08:52:36;;;;;;;;;;;;;;;9.34;63.09;99085.81;4480250;32;34073;-90
2023/01/08 08:55:04;;;;;;;;;;;;;;;8.13;66.61;99093.00;4475062;32;33184;-83
2023/01/08 08:57:32;;;;;;;;;;;;;;;9.06;64.43;99093.97;4483155;32;35181;-87
2023/01/08 08:59:59;;;;;;;;;;;;;;;9.59;62.76;99102.63;4482784;32;33962;-89
2023/01/08 09:02:27;;;;;;;;;;;;;;;9.42;63.07;99093.72;4470325;32;34144;-90
2023/01/08 09:04:55;;;;;;;;;;;;;;;9.06;64.83;99096.56;4471273;32;33066;-83
2023/01/08 09:07:22;;;;;;;;;;;;;;;9.32;64.03;99084.03;4479845;32;33829;-85
2023/01/08 09:09:50;;;;;;;;;;;;;;;10.70;59.70;99081.66;4471349;32;33570;-88
2023/01/08 09:12:17;;;;;;;;;;;;;;;10.48;59.22;99086.59;4481784;32;34852;-89
2023/01/08 09:14:44;;;;;;;;;;;;;;;10.27;60.10;99085.50;4473003;32;33182;-89
2023/01/08 09:17:12;;;;;;;;;;;;;;;9.83;61.57;99078.81;4473548;32;34062;-87
2023/01/08 09:19:39;;;;;;;;;;;;;;;9.85;61.72;99082.31;4476536;31;35253;-86
2023/01/08 09:22:06;;;;;;;;;;;;;;;10.06;60.56;99078.25;4475204;32;33847;-87
2023/01/08 09:24:34;;;;;;;;;;;;;;;10.41;60.19;99078.72;4472471;32;33622;-90
2023/01/08 09:27:01;;;;;;;;;;;;;;;10.22;60.90;99083.66;4461978;32;34074;-90
2023/01/08 09:29:28;;;;;;;;;;;;;;;9.84;61.25;99079.69;4482009;32;35136;-88
2023/01/08 09:31:59;;;;;;;;;;;;;;;10.61;59.53;99077.25;4482814;32;35198;-87
2023/01/08 09:34:26;;;;;;;;;;;;;;;11.19;57.97;99062.25;4483021;32;33638;-87
2023/01/08 09:36:53;;;;;;;;;;;;;;;11.68;56.26;99060.03;4482446;32;34069;-89
2023/01/08 09:39:21;;;;;;;;;;;;;;;9.98;61.04;99067.78;4480368;32;34509;-83
2023/01/08 09:41:48;;;;;;;;;;;;;;;8.77;64.86;99053.81;4467182;32;34150;-90
2023/01/08 09:44:19;;;;;;;;;;;;;;;10.28;60.90;99053.53;4467320;32;33171;-87
2023/01/08 09:46:47;;;;;;;;;;;;;;;10.51;60.16;99054.66;4466979;32;34424;-87
2023/01/08 09:49:21;;;;;;;;;;;;;;;10.17;60.73;99038.69;4467697;32;34333;-90
2023/01/08 09:51:48;;;;;;;;;;;;;;;10.47;59.73;99042.53;4482972;32;34035;-90
2023/01/08 09:54:17;;;;;;;;;;;;;;;10.21;61.10;99035.28;4468090;32;33461;-87
2023/01/08 09:56:44;;;;;;;;;;;;;;;11.02;59.17;99024.91;4467315;32;34041;-86
2023/01/08 09:59:12;;;;;;;;;;;;;;;10.72;59.25;99020.34;4467920;32;35201;-83
2023/01/08 10:01:39;;;;;;;;;;;;;;;10.48;60.03;99023.53;4468542;32;34143;-89
2023/01/08 10:04:10;;;;;;;;;;;;;;;10.45;60.14;99013.13;4458638;32;34004;-84
2023/01/08 10:06:39;;;;;;;;;;;;;;;10.03;61.79;99008.28;4472543;32;33355;-87
2023/01/08 10:09:06;;;;;;;;;;;;;;;10.50;60.21;99010.59;4474389;32;34494;-87
2023/01/08 10:11:38;;;;;;;;;;;;;;;10.63;59.49;98996.88;4482209;32;33631;-83
2023/01/08 10:14:05;;;;;;;;;;;;;;;10.74;59.89;98991.81;4468146;32;34428;-91
2023/01/08 10:16:32;;;;;;;;;;;;;;;10.13;61.54;98995.47;4468004;32;34023;-86
2023/01/08 10:19:01;;;;;;;;;;;;;;;9.98;62.10;98995.28;4467938;32;34874;-86
2023/01/08 10:21:32;;;;;;;;;;;;;;;11.48;57.59;98985.44;4466480;32;33679;-90
2023/01/08 10:23:59;;;;;;;;;;;;;;;12.00;55.86;98971.03;4464336;32;32464;-89
2023/01/08 10:26:46;;;;;;;;;;;;;;;11.91;56.01;98971.87;4475223;32;34250;-84
2023/01/08 10:29:14;;;;;;;;;;;;;;;10.35;59.75;98980.19;4469723;32;34368;-83
2023/01/08 10:31:52;;;;;;;;;;;;;;;10.30;61.10;98981.84;4469281;32;33943;-83
2023/01/08 10:35:03;;;;;;;;;;;;;;;11.25;58.28;98969.72;4454477;32;34066;-89
2023/01/08 10:37:38;;;;;;;;;;;;;;;12.28;55.26;98966.81;4475279;32;34380;-89
2023/01/08 10:40:19;;;;;;;;;;;;;;;11.21;57.66;98953.25;4461515;32;33845;-82
2023/01/08 10:42:46;;;;;;;;;;;;;;;10.72;59.97;98955.50;4475871;32;35007;-89
2023/01/08 10:45:20;;;;;;;;;;;;;;;11.39;57.96;98952.53;4474954;32;33457;-88
2023/01/08 10:47:50;;;;;;;;;;;;;;;12.34;55.35;98946.00;4462264;32;34795;-88
2023/01/08 10:50:21;;;;;;;;;;;;;;;11.60;56.77;98941.41;4478314;32;34251;-83
2023/01/08 10:52:54;;;;;;;;;;;;;;;11.37;57.51;98946.47;4474306;32;34860;-90
2023/01/08 10:55:21;;;;;;;;;;;;;;;12.17;55.85;98937.31;4475453;32;33925;-88
2023/01/08 10:57:56;;;;;;;;;;;;;;;11.87;56.33;98930.31;4476421;32;34903;-81
2023/01/08 11:00:27;;;;;;;;;;;;;;;12.02;55.86;98935.53;4464064;32;33989;-88
2023/01/08 11:02:55;;;;;;;;;;;;;;;12.66;54.25;98927.88;4446586;32;32993;-88
2023/01/08 11:05:33;;;;;;;;;;;;;;;12.45;55.02;98926.97;4465332;32;33460;-82
2023/01/08 11:08:01;;;;;;;;;;;;;;;12.10;55.81;98931.22;4478781;32;34316;-88
2023/01/08 11:10:28;;;;;;;;;;;;;;;11.28;58.19;98928.22;4459900;32;33985;-88
2023/01/08 11:12:59;;;;;;;;;;;;;;;12.52;55.34;98911.37;4471291;32;35124;-83
2023/01/08 11:15:26;;;;;;;;;;;;;;;12.11;56.29;98903.50;4469693;32;34347;-87
2023/01/08 11:18:26;;;;;;;;;;;;;;;12.41;55.86;98900.97;4472627;32;33886;-86
2023/01/08 11:21:04;;;;;;;;;;;;;;;13.25;53.31;98894.00;4446208;32;35376;-90
2023/01/08 11:23:32;;;;;;;;;;;;;;;13.06;54.02;98890.53;4470851;32;34889;-84
2023/01/08 11:26:07;;;;;;;;;;;;;;;13.38;53.19;98891.38;4470180;32;34035;-86
2023/01/08 11:28:51;;;;;;;;;;;;;;;14.23;50.83;98880.56;4475041;32;34650;-86
2023/01/08 11:31:24;;;;;;;;;;;;;;;14.87;49.26;98871.38;4467420;32;34651;-83
2023/01/08 11:33:53;;;;;;;;;;;;;;;14.65;49.50;98868.09;4464678;32;35036;-88
2023/01/08 11:36:29;;;;;;;;;;;;;;;12.87;53.37;98867.16;4463579;32;33306;-86
2023/01/08 11:38:56;;;;;;;;;;;;;;;13.37;53.04;98861.00;4462976;32;33671;-82
2023/01/08 11:41:28;;;;;;;;;;;;;;;12.86;53.98;98857.63;4478830;32;34183;-87
2023/01/08 11:44:18;;;;;;;;;;;;;;;13.50;52.66;98864.44;4479726;32;34399;-85
2023/01/08 11:46:45;;;;;;;;;;;;;;;13.81;51.79;98851.25;4472979;32;33838;-85
2023/01/08 11:49:18;;;;;;;;;;;;;;;13.51;52.52;98849.66;4479391;32;33845;-84
2023/01/08 11:51:57;;;;;;;;;;;;;;;13.63;52.81;98837.44;4477910;32;35303;-90
2023/01/08 11:54:54;;;;;;;;;;;;;;;13.06;53.24;98841.09;4464278;32;33690;-91
2023/01/08 11:57:25;;;;;;;;;;;;;;;14.01;51.30;98828.53;4463862;32;32991;-83
2023/01/08 12:00:02;;;;;;;;;;;;;;;14.56;50.45;98825.56;4478850;32;34864;-88
2023/01/08 12:02:40;;;;;;;;;;;;;;;14.20;51.27;98823.19;4461961;32;34180;-88
2023/01/08 12:05:25;;;;;;;;;;;;;;;13.93;51.54;98835.53;4468190;32;33909;-88
2023/01/08 12:07:57;;;;;;;;;;;;;;;13.67;52.62;98833.09;4475644;32;33434;-87
2023/01/08 12:10:25;;;;;;;;;;;;;;;13.61;52.88;98828.78;4462465;32;34347;-83
2023/01/08 12:12:56;;;;;;;;;;;;;;;12.96;54.71;98823.78;4480599;32;34827;-84
2023/01/08 12:15:31;;;;;;;;;;;;;;;13.55;53.00;98813.16;4476653;32;34122;-86
2023/01/08 12:18:11;;;;;;;;;;;;;;;13.39;53.82;98814.13;4464578;32;34169;-86
2023/01/08 12:20:38;;;;;;;;;;;;;;;14.15;51.98;98804.13;4478864;31;35110;-84
2023/01/08 12:23:12;;;;;;;;;;;;;;;14.50;50.53;98812.56;4459095;32;35282;-90
2023/01/08 12:25:39;;;;;;;;;;;;;;;14.91;50.04;98807.84;4474448;31;33436;-87
2023/01/08 12:28:36;;;;;;;;;;;;;;;14.66;50.21;98809.81;4482774;32;33526;-85
2023/01/08 12:31:24;;;;;;;;;;;;;;;14.41;50.93;98806.53;4466899;32;33901;-88
2023/01/08 12:34:00;;;;;;;;;;;;;;;14.49;50.54;98807.34;4483314;32;34390;-88
2023/01/08 12:36:29;;;;;;;;;;;;;;;14.21;51.31;98811.91;4468034;32;33888;-88
2023/01/08 12:39:02;;;;;;;;;;;;;;;14.64;50.25;98812.44;4467149;32;33736;-83
2023/01/08 12:41:31;;;;;;;;;;;;;;;14.46;50.28;98805.59;4467845;32;33726;-86
2023/01/08 12:44:00;;;;;;;;;;;;;;;15.65;47.68;98800.88;4461345;32;34174;-88
2023/01/08 12:46:29;;;;;;;;;;;;;;;15.67;48.39;98798.25;4478296;32;33949;-86
2023/01/08 12:48:56;;;;;;;;;;;;;;;15.54;48.30;98798.38;4452868;32;33320;-86
2023/01/08 12:51:29;;;;;;;;;;;;;;;15.54;47.76;98794.91;4467574;32;34197;-88
2023/01/08 12:54:15;;;;;;;;;;;;;;;16.32;46.32;98800.75;4467433;32;34195;-87
2023/01/08 12:56:48;;;;;;;;;;;;;;;15.30;48.28;98796.06;4481980;32;33641;-88
2023/01/08 12:59:21;;;;;;;;;;;;;;;15.54;47.67;98794.91;4483215;32;33607;-87
2023/01/08 13:01:49;;;;;;;;;;;;;;;15.83;47.37;98794.50;4483186;32;34317;-86